createdAt,value
2017-08-09T00:00:25.680Z,64.95
2017-08-09T00:01:06.274Z,65.14
2017-08-09T00:01:46.844Z,65.24
2017-08-09T00:02:27.432Z,64.95
2017-08-09T00:03:08.013Z,65.05
2017-08-09T00:03:48.585Z,65.24
2017-08-09T00:04:29.174Z,65.14
2017-08-09T00:05:09.767Z,65.24
2017-08-09T00:05:50.353Z,65.24
2017-08-09T00:06:45.815Z,65.01
2017-08-09T00:07:26.412Z,65.14
2017-08-09T00:08:06.998Z,65.53
2017-08-09T00:08:47.574Z,65.24
2017-08-09T00:09:28.160Z,65.14
2017-08-09T00:10:08.751Z,65.43
2017-08-09T00:10:49.330Z,65.2
2017-08-09T00:11:29.912Z,65.3
2017-08-09T00:12:10.504Z,65.2
2017-08-09T00:12:51.090Z,65.4
2017-08-09T00:13:31.682Z,65.69
2017-08-09T00:14:12.265Z,65.4
2017-08-09T00:14:52.849Z,65.2
2017-08-09T00:15:33.437Z,65.4
2017-08-09T00:16:14.028Z,65.69
2017-08-09T00:16:54.600Z,65.11
2017-08-09T00:17:35.190Z,65.5
2017-08-09T00:18:15.778Z,65.11
2017-08-09T00:18:56.377Z,65.89
2017-08-09T00:19:36.957Z,65.89
2017-08-09T00:20:17.532Z,65.98
2017-08-09T00:20:58.129Z,65.98
2017-08-09T00:21:38.707Z,65.89
2017-08-09T00:22:19.281Z,66.08
2017-08-09T00:22:59.884Z,66.08
2017-08-09T00:23:40.456Z,65.89
2017-08-09T00:24:21.041Z,66.08
2017-08-09T00:25:01.646Z,65.98
2017-08-09T00:25:42.239Z,65.59
2017-08-09T00:26:22.835Z,65.89
2017-08-09T00:27:03.410Z,65.98
2017-08-09T00:27:43.986Z,65.89
2017-08-09T00:28:24.569Z,65.5
2017-08-09T00:29:05.157Z,65.43
2017-08-09T00:29:45.736Z,65.63
2017-08-09T00:30:26.321Z,65.79
2017-08-09T00:31:06.909Z,65.43
2017-08-09T00:31:47.488Z,65.72
2017-08-09T00:32:28.079Z,65.53
2017-08-09T00:33:08.666Z,65.72
2017-08-09T00:33:49.252Z,65.53
2017-08-09T00:34:29.829Z,65.72
2017-08-09T00:35:10.414Z,65.24
2017-08-09T00:35:50.995Z,65.33
2017-08-09T00:36:31.574Z,65.14
2017-08-09T00:37:12.162Z,65.43
2017-08-09T00:37:52.753Z,65.53
2017-08-09T00:38:33.342Z,65.05
2017-08-09T00:39:13.925Z,65.14
2017-08-09T00:39:54.510Z,65.24
2017-08-09T00:40:35.085Z,65.43
2017-08-09T00:41:15.666Z,65.14
2017-08-09T00:41:56.252Z,65.33
2017-08-09T00:42:36.844Z,65.14
2017-08-09T00:43:17.425Z,65.53
2017-08-09T00:43:58.019Z,65.43
2017-08-09T00:44:38.600Z,65.14
2017-08-09T00:45:19.299Z,64.75
2017-08-09T00:45:59.877Z,65.05
2017-08-09T00:46:40.466Z,65.14
2017-08-09T00:47:21.053Z,64.85
2017-08-09T00:48:01.644Z,65.05
2017-08-09T00:48:42.236Z,64.95
2017-08-09T00:49:22.823Z,65.24
2017-08-09T00:50:03.403Z,65.24
2017-08-09T00:50:43.983Z,65.24
2017-08-09T00:51:24.578Z,64.95
2017-08-09T00:52:05.160Z,65.14
2017-08-09T00:52:45.749Z,64.65
2017-08-09T00:53:26.323Z,64.26
2017-08-09T00:54:06.903Z,64.26
2017-08-09T00:54:47.484Z,64.07
2017-08-09T00:55:28.072Z,64.75
2017-08-09T00:56:08.656Z,64.85
2017-08-09T00:56:49.246Z,64.26
2017-08-09T00:57:29.832Z,64.26
2017-08-09T00:58:10.416Z,64.17
2017-08-09T00:58:50.984Z,64.07
2017-08-09T00:59:31.571Z,64.46
2017-08-09T01:00:12.148Z,64.07
2017-08-09T01:00:52.730Z,64.26
2017-08-09T01:01:33.316Z,64.26
2017-08-09T01:02:13.911Z,63.98
2017-08-09T01:04:01.445Z,64.07
2017-08-09T01:04:57.023Z,64.07
2017-08-09T01:07:09.843Z,63.78
2017-08-09T01:07:50.423Z,63.78
2017-08-09T01:08:31.008Z,63.78
2017-08-09T01:09:11.586Z,63.88
2017-08-09T01:09:52.165Z,63.98
2017-08-09T01:10:32.749Z,64.07
2017-08-09T01:11:13.336Z,64.26
2017-08-09T01:11:53.915Z,64.26
2017-08-09T01:12:34.499Z,64.07
2017-08-09T01:13:15.083Z,64.17
2017-08-09T01:13:55.657Z,63.88
2017-08-09T01:14:36.258Z,64.36
2017-08-09T01:15:16.836Z,64.17
2017-08-09T01:15:57.414Z,63.98
2017-08-09T01:16:37.989Z,63.75
2017-08-09T01:17:18.580Z,63.68
2017-08-09T01:17:59.170Z,63.98
2017-08-09T01:18:39.757Z,63.88
2017-08-09T01:19:20.347Z,63.59
2017-08-09T01:20:00.930Z,63.78
2017-08-09T01:20:41.515Z,63.68
2017-08-09T01:21:22.086Z,63.98
2017-08-09T01:22:02.665Z,63.59
2017-08-09T01:22:43.257Z,63.98
2017-08-09T01:23:23.846Z,64.26
2017-08-09T01:24:04.430Z,64.07
2017-08-09T01:24:45.012Z,63.59
2017-08-09T01:25:25.604Z,64.26
2017-08-09T01:26:06.192Z,64.36
2017-08-09T01:26:46.776Z,64.46
2017-08-09T01:27:27.364Z,63.98
2017-08-09T01:28:07.944Z,64.17
2017-08-09T01:28:48.522Z,64.46
2017-08-09T01:29:29.109Z,64.46
2017-08-09T01:30:09.692Z,64.07
2017-08-09T01:30:50.271Z,64.26
2017-08-09T01:31:30.861Z,64.26
2017-08-09T01:32:11.437Z,64.07
2017-08-09T01:32:52.022Z,64.26
2017-08-09T01:33:32.611Z,64.26
2017-08-09T01:34:13.202Z,64.36
2017-08-09T01:34:53.785Z,63.88
2017-08-09T01:35:34.382Z,64.26
2017-08-09T01:36:14.970Z,64.17
2017-08-09T01:36:55.547Z,64.17
2017-08-09T01:37:36.138Z,64.26
2017-08-09T01:38:16.718Z,64.56
2017-08-09T01:38:57.296Z,64.85
2017-08-09T01:39:37.879Z,64.56
2017-08-09T01:40:18.465Z,64.95
2017-08-09T01:40:59.051Z,64.85
2017-08-09T01:41:39.629Z,64.85
2017-08-09T01:42:20.214Z,64.65
2017-08-09T01:43:00.798Z,64.65
2017-08-09T01:44:53.434Z,64.26
2017-08-09T01:45:34.018Z,64.07
2017-08-09T01:46:14.604Z,64.07
2017-08-09T01:46:55.200Z,64.26
2017-08-09T01:47:35.776Z,63.88
2017-08-09T01:48:16.365Z,64.17
2017-08-09T01:48:56.951Z,64.17
2017-08-09T01:49:37.530Z,64.26
2017-08-09T01:50:18.117Z,63.59
2017-08-09T01:50:58.709Z,63.95
2017-08-09T01:51:39.290Z,64.33
2017-08-09T01:52:19.876Z,64.62
2017-08-09T01:53:00.465Z,64.75
2017-08-09T01:53:41.051Z,64.85
2017-08-09T01:54:21.637Z,64.62
2017-08-09T01:55:02.226Z,64.82
2017-08-09T01:55:42.816Z,64.75
2017-08-09T01:56:23.406Z,65.05
2017-08-09T01:57:03.993Z,64.75
2017-08-09T01:57:44.578Z,64.85
2017-08-09T01:58:25.163Z,64.85
2017-08-09T01:59:05.752Z,64.65
2017-08-09T01:59:46.335Z,64.85
2017-08-09T02:00:26.917Z,64.75
2017-08-09T02:01:07.507Z,64.75
2017-08-09T02:01:48.092Z,64.65
2017-08-09T02:02:28.678Z,64.65
2017-08-09T02:03:09.261Z,64.26
2017-08-09T02:03:49.847Z,64.17
2017-08-09T02:04:30.426Z,64.75
2017-08-09T02:05:11.011Z,64.85
2017-08-09T02:05:51.600Z,64.56
2017-08-09T02:06:32.187Z,64.85
2017-08-09T02:07:12.775Z,64.65
2017-08-09T02:07:53.359Z,64.17
2017-08-09T02:08:33.949Z,64.26
2017-08-09T02:09:14.532Z,64.26
2017-08-09T02:09:55.106Z,64.56
2017-08-09T02:10:35.689Z,64.62
2017-08-09T02:11:16.277Z,64.26
2017-08-09T02:11:56.864Z,64.43
2017-08-09T02:12:37.455Z,64.62
2017-08-09T02:13:18.065Z,64.65
2017-08-09T02:13:58.653Z,65.11
2017-08-09T02:14:39.218Z,64.92
2017-08-09T02:15:19.806Z,64.95
2017-08-09T02:16:00.393Z,65.24
2017-08-09T02:16:40.976Z,65.11
2017-08-09T02:17:21.557Z,65.01
2017-08-09T02:18:02.148Z,65.4
2017-08-09T02:18:42.734Z,65.24
2017-08-09T02:19:23.317Z,65.33
2017-08-09T02:20:03.906Z,65.43
2017-08-09T02:20:44.490Z,65.43
2017-08-09T02:21:25.071Z,65.05
2017-08-09T02:22:05.659Z,65.3
2017-08-09T02:22:46.243Z,65.4
2017-08-09T02:23:26.832Z,65.11
2017-08-09T02:24:07.427Z,65.14
2017-08-09T02:24:48.010Z,65.3
2017-08-09T02:25:28.589Z,64.92
2017-08-09T02:26:09.164Z,65.3
2017-08-09T02:26:49.755Z,65.2
2017-08-09T02:27:30.336Z,65.4
2017-08-09T02:28:10.924Z,65.4
2017-08-09T02:28:51.512Z,65.2
2017-08-09T02:29:32.093Z,65.3
2017-08-09T02:30:12.674Z,65.01
2017-08-09T02:30:53.260Z,65.11
2017-08-09T02:31:33.844Z,65.3
2017-08-09T02:32:14.425Z,65.4
2017-08-09T02:32:55.011Z,64.92
2017-08-09T02:33:35.601Z,64.92
2017-08-09T02:34:16.182Z,65.11
2017-08-09T02:34:56.772Z,65.11
2017-08-09T02:35:37.358Z,65.2
2017-08-09T02:36:17.946Z,65.2
2017-08-09T02:36:58.529Z,65.3
2017-08-09T02:37:39.109Z,65.2
2017-08-09T02:38:19.698Z,65.2
2017-08-09T02:39:00.285Z,65.11
2017-08-09T02:39:40.878Z,65.2
2017-08-09T02:40:21.481Z,65.5
2017-08-09T02:41:02.060Z,65.4
2017-08-09T02:41:42.639Z,65.01
2017-08-09T02:42:23.230Z,65.01
2017-08-09T02:43:03.811Z,65.11
2017-08-09T02:43:44.400Z,65.3
2017-08-09T02:44:24.988Z,65.01
2017-08-09T02:45:05.595Z,64.92
2017-08-09T02:45:46.167Z,65.4
2017-08-09T02:46:26.752Z,65.3
2017-08-09T02:47:07.336Z,65.3
2017-08-09T02:47:47.930Z,65.11
2017-08-09T02:48:28.515Z,65.2
2017-08-09T02:49:09.105Z,65.24
2017-08-09T02:50:04.608Z,65.2
2017-08-09T02:50:45.204Z,65.2
2017-08-09T02:51:25.777Z,65.3
2017-08-09T02:52:06.353Z,64.92
2017-08-09T02:52:46.940Z,65.33
2017-08-09T02:53:27.529Z,65.11
2017-08-09T02:54:08.110Z,65.01
2017-08-09T02:54:48.700Z,65.24
2017-08-09T02:55:29.285Z,65.2
2017-08-09T02:56:09.875Z,65.11
2017-08-09T02:56:50.453Z,65.43
2017-08-09T02:57:31.039Z,65.33
2017-08-09T02:58:11.624Z,65.11
2017-08-09T02:58:52.202Z,65.24
2017-08-09T02:59:32.794Z,65.14
2017-08-09T03:00:13.379Z,65.11
2017-08-09T03:00:53.949Z,65.11
2017-08-09T03:01:34.520Z,65.2
2017-08-09T03:02:15.079Z,65.2
2017-08-09T03:02:55.669Z,65.24
2017-08-09T03:03:36.258Z,65.2
2017-08-09T03:04:16.838Z,65.43
2017-08-09T03:04:57.422Z,64.85
2017-08-09T03:05:38.010Z,65.01
2017-08-09T03:06:18.589Z,65.3
2017-08-09T03:06:59.174Z,65.2
2017-08-09T03:07:39.756Z,65.3
2017-08-09T03:08:20.342Z,65.01
2017-08-09T03:09:00.917Z,65.05
2017-08-09T03:09:41.510Z,65.11
2017-08-09T03:10:22.094Z,64.62
2017-08-09T03:11:02.681Z,64.53
2017-08-09T03:11:43.275Z,64.72
2017-08-09T03:12:23.867Z,64.62
2017-08-09T03:13:04.441Z,65.11
2017-08-09T03:13:45.023Z,64.53
2017-08-09T03:14:25.598Z,65.01
2017-08-09T03:15:06.187Z,64.72
2017-08-09T03:15:46.771Z,63.95
2017-08-09T03:16:27.352Z,63.85
2017-08-09T03:17:07.966Z,63.85
2017-08-09T03:17:48.549Z,64.23
2017-08-09T03:18:29.132Z,63.65
2017-08-09T03:19:09.845Z,63.56
2017-08-09T03:19:50.433Z,63.75
2017-08-09T03:20:31.015Z,63.75
2017-08-09T03:21:11.601Z,63.75
2017-08-09T03:21:52.178Z,63.26
2017-08-09T03:23:39.735Z,63.75
2017-08-09T03:24:20.317Z,63.65
2017-08-09T03:25:00.899Z,63.85
2017-08-09T03:25:41.509Z,63.85
2017-08-09T03:26:22.094Z,63.46
2017-08-09T03:27:02.677Z,63.75
2017-08-09T03:27:43.266Z,63.36
2017-08-09T03:28:23.857Z,63.75
2017-08-09T03:29:04.446Z,64.23
2017-08-09T03:29:45.022Z,64.23
2017-08-09T03:30:25.612Z,64.23
2017-08-09T03:31:06.212Z,64.04
2017-08-09T03:31:46.802Z,64.23
2017-08-09T03:32:27.371Z,64.92
2017-08-09T03:33:07.950Z,64.62
2017-08-09T03:33:48.527Z,64.04
2017-08-09T03:34:29.119Z,64.23
2017-08-09T03:35:09.697Z,64.04
2017-08-09T03:35:50.281Z,64.04
2017-08-09T03:36:30.859Z,64.04
2017-08-09T03:37:11.444Z,64.72
2017-08-09T03:37:52.033Z,64.33
2017-08-09T03:38:32.611Z,64.14
2017-08-09T03:39:13.194Z,64.23
2017-08-09T03:39:53.774Z,64.04
2017-08-09T03:40:34.359Z,63.95
2017-08-09T03:41:25.694Z,63.95
2017-08-09T03:42:06.277Z,63.85
2017-08-09T03:42:46.855Z,63.85
2017-08-09T03:43:27.439Z,63.85
2017-08-09T03:44:08.091Z,64.14
2017-08-09T03:44:48.678Z,64.23
2017-08-09T03:45:29.302Z,64.92
2017-08-09T03:46:10.017Z,64.23
2017-08-09T03:46:50.751Z,64.53
2017-08-09T03:47:31.387Z,64.72
2017-08-09T03:48:11.995Z,64.72
2017-08-09T03:48:52.609Z,64.04
2017-08-09T03:49:33.246Z,64.14
2017-08-09T03:50:13.841Z,64.14
2017-08-09T03:50:54.428Z,64.53
2017-08-09T03:51:35.057Z,64.14
2017-08-09T03:52:15.632Z,62.98
2017-08-09T03:52:56.223Z,61.71
2017-08-09T03:53:36.802Z,60.71
2017-08-09T03:54:17.413Z,60.42
2017-08-09T03:54:58.053Z,60.71
2017-08-09T03:55:38.644Z,60.61
2017-08-09T03:56:19.221Z,60.52
2017-08-09T03:56:59.873Z,60.91
2017-08-09T03:57:40.460Z,60.23
2017-08-09T03:58:21.045Z,60.97
2017-08-09T03:59:01.753Z,60.78
2017-08-09T03:59:42.450Z,60.49
2017-08-09T04:00:23.063Z,60.49
2017-08-09T04:01:03.668Z,61.46
2017-08-09T04:01:44.246Z,61.17
2017-08-09T04:02:24.916Z,61.43
2017-08-09T04:03:05.530Z,61.52
2017-08-09T04:03:46.336Z,61.62
2017-08-09T04:04:27.074Z,61.62
2017-08-09T04:05:07.748Z,62.1
2017-08-09T04:05:48.309Z,62.2
2017-08-09T04:06:29.022Z,62.17
2017-08-09T04:07:09.672Z,62.2
2017-08-09T04:07:50.262Z,62.2
2017-08-09T04:08:30.872Z,62.49
2017-08-09T04:09:11.452Z,62.27
2017-08-09T04:09:52.129Z,63.14
2017-08-09T04:10:32.725Z,62.95
2017-08-09T04:11:13.324Z,62.85
2017-08-09T04:11:53.894Z,62.85
2017-08-09T04:12:34.465Z,62.46
2017-08-09T04:13:15.050Z,62.75
2017-08-09T04:13:55.629Z,62.27
2017-08-09T04:14:36.321Z,63.04
2017-08-09T04:15:16.959Z,62.95
2017-08-09T04:15:57.543Z,63.34
2017-08-09T04:16:38.143Z,63.04
2017-08-09T04:17:18.883Z,63.14
2017-08-09T04:17:59.478Z,62.82
2017-08-09T04:18:40.057Z,63.21
2017-08-09T04:19:20.629Z,62.92
2017-08-09T04:20:01.234Z,63.11
2017-08-09T04:20:41.846Z,62.72
2017-08-09T04:21:22.429Z,62.92
2017-08-09T04:22:02.992Z,62.92
2017-08-09T04:22:43.561Z,63.01
2017-08-09T04:23:24.146Z,63.21
2017-08-09T04:24:05.384Z,63.21
2017-08-09T04:24:45.969Z,63.69
2017-08-09T04:25:26.564Z,64.07
2017-08-09T04:26:07.143Z,63.95
2017-08-09T04:26:47.734Z,63.85
2017-08-09T04:27:28.317Z,63.85
2017-08-09T04:28:08.897Z,63.95
2017-08-09T04:28:49.473Z,63.85
2017-08-09T04:29:30.065Z,63.46
2017-08-09T04:31:49.549Z,63.56
2017-08-09T04:32:30.136Z,63.18
2017-08-09T04:33:10.714Z,63.27
2017-08-09T04:33:51.298Z,63.27
2017-08-09T04:34:31.872Z,63.37
2017-08-09T04:35:12.454Z,62.79
2017-08-09T04:35:53.038Z,63.46
2017-08-09T04:36:33.624Z,63.66
2017-08-09T04:37:14.208Z,64.24
2017-08-09T04:38:09.680Z,64.04
2017-08-09T04:38:50.269Z,64.04
2017-08-09T04:39:30.836Z,64.14
2017-08-09T04:40:11.408Z,64.04
2017-08-09T04:42:24.270Z,64.4
2017-08-09T04:43:04.849Z,64.43
2017-08-09T04:43:45.433Z,64.62
2017-08-09T04:44:26.008Z,64.69
2017-08-09T04:45:06.586Z,64.69
2017-08-09T04:45:47.179Z,64.69
2017-08-09T04:46:27.766Z,64.59
2017-08-09T04:47:08.347Z,64.69
2017-08-09T04:47:48.948Z,64.89
2017-08-09T04:48:29.496Z,65.17
2017-08-09T04:49:24.737Z,64.79
2017-08-09T04:50:05.320Z,64.98
2017-08-09T04:50:45.901Z,64.89
2017-08-09T04:51:26.478Z,65.08
2017-08-09T04:52:07.065Z,64.89
2017-08-09T04:52:47.641Z,64.4
2017-08-09T04:53:28.223Z,64.59
2017-08-09T04:54:08.810Z,64.4
2017-08-09T04:54:49.384Z,64.5
2017-08-09T04:55:29.962Z,64.11
2017-08-09T04:56:10.544Z,63.82
2017-08-09T04:56:51.124Z,63.95
2017-08-09T04:57:31.708Z,64.01
2017-08-09T04:58:12.295Z,64.04
2017-08-09T04:58:52.889Z,63.63
2017-08-09T04:59:33.474Z,64.04
2017-08-09T05:00:14.062Z,64.14
2017-08-09T05:00:54.656Z,63.95
2017-08-09T05:01:35.236Z,63.76
2017-08-09T05:02:15.817Z,63.95
2017-08-09T05:02:56.399Z,64.01
2017-08-09T05:03:36.983Z,63.95
2017-08-09T05:04:20.525Z,63.95
2017-08-09T05:05:01.102Z,63.92
2017-08-09T05:05:41.688Z,63.92
2017-08-09T05:06:22.273Z,63.95
2017-08-09T05:07:02.860Z,63.85
2017-08-09T05:07:43.445Z,64.01
2017-08-09T05:08:24.026Z,63.85
2017-08-09T05:09:04.603Z,63.66
2017-08-09T05:09:45.187Z,63.85
2017-08-09T05:10:25.763Z,63.85
2017-08-09T05:11:06.348Z,63.82
2017-08-09T05:11:46.935Z,63.92
2017-08-09T05:12:27.522Z,64.01
2017-08-09T05:13:08.106Z,63.92
2017-08-09T05:13:48.680Z,63.92
2017-08-09T05:14:29.279Z,64.01
2017-08-09T05:15:09.866Z,63.73
2017-08-09T05:15:50.455Z,63.85
2017-08-09T05:18:47.045Z,63.56
2017-08-09T05:19:27.623Z,63.46
2017-08-09T05:20:08.203Z,63.37
2017-08-09T05:20:48.773Z,62.88
2017-08-09T05:21:29.369Z,63.37
2017-08-09T05:22:09.946Z,63.18
2017-08-09T05:22:50.518Z,63.18
2017-08-09T05:23:31.173Z,62.72
2017-08-09T05:24:11.758Z,62.43
2017-08-09T05:24:52.324Z,62.82
2017-08-09T05:25:32.908Z,62.43
2017-08-09T05:26:13.499Z,62.53
2017-08-09T05:26:54.079Z,61.66
2017-08-09T05:27:34.662Z,62.14
2017-08-09T05:28:15.251Z,62.04
2017-08-09T05:28:55.842Z,61.85
2017-08-09T05:29:36.426Z,61.4
2017-08-09T05:30:17.014Z,61.3
2017-08-09T05:30:57.600Z,60.24
2017-08-09T05:31:38.183Z,60.17
2017-08-09T05:32:18.768Z,59.59
2017-08-09T05:32:59.357Z,58.84
2017-08-09T05:33:39.925Z,57.34
2017-08-09T05:34:20.513Z,56.14
2017-08-09T05:35:01.100Z,54.9
2017-08-09T05:35:41.682Z,53.64
2017-08-09T05:36:22.268Z,53.38
2017-08-09T05:37:02.857Z,52.79
2017-08-09T05:37:43.439Z,52.21
2017-08-09T05:38:24.028Z,52.33
2017-08-09T05:39:04.617Z,51.21
2017-08-09T05:39:45.203Z,50.16
2017-08-09T05:40:25.789Z,49.34
2017-08-09T05:41:06.376Z,47.9
2017-08-09T05:41:46.965Z,46.19
2017-08-09T05:42:27.549Z,46.39
2017-08-09T05:43:08.134Z,46.26
2017-08-09T05:43:48.722Z,45.85
2017-08-09T05:44:29.304Z,46.14
2017-08-09T05:45:09.888Z,46.34
2017-08-09T05:45:50.468Z,46.12
2017-08-09T05:46:31.057Z,45.48
2017-08-09T05:47:11.643Z,43.96
2017-08-09T05:47:52.216Z,42.56
2017-08-09T05:48:32.812Z,41.23
2017-08-09T05:49:13.396Z,39.39
2017-08-09T05:49:53.974Z,39.31
2017-08-09T05:50:34.547Z,39.17
2017-08-09T05:51:16.123Z,39.96
2017-08-09T05:51:56.718Z,40.43
2017-08-09T05:52:37.297Z,40.33
2017-08-09T05:53:17.883Z,39.49
2017-08-09T05:53:58.463Z,38.25
2017-08-09T05:54:39.047Z,37.98
2017-08-09T05:55:19.630Z,36.83
2017-08-09T05:56:00.220Z,35.87
2017-08-09T05:56:40.805Z,34.92
2017-08-09T05:57:21.393Z,34.53
2017-08-09T05:58:01.973Z,35.57
2017-08-09T05:58:42.561Z,36.54
2017-08-09T05:59:23.148Z,37.09
2017-08-09T06:00:03.729Z,38.06
2017-08-09T06:00:44.316Z,39.11
2017-08-09T06:01:24.904Z,40.17
2017-08-09T06:02:05.490Z,40.25
2017-08-09T06:02:46.075Z,41.5
2017-08-09T06:03:26.658Z,42.56
2017-08-09T06:04:07.259Z,42.76
2017-08-09T06:04:47.831Z,43.23
2017-08-09T06:05:28.423Z,44.28
2017-08-09T06:06:09.002Z,44.65
2017-08-09T06:06:49.593Z,45.41
2017-08-09T06:07:30.181Z,46.26
2017-08-09T06:08:10.764Z,46.92
2017-08-09T06:08:51.351Z,47.88
2017-08-09T06:09:31.940Z,48.66
2017-08-09T06:10:12.524Z,49.22
2017-08-09T06:10:53.111Z,49.97
2017-08-09T06:11:33.700Z,50.82
2017-08-09T06:12:14.280Z,51.19
2017-08-09T06:12:54.867Z,52.06
2017-08-09T06:13:35.476Z,52.53
2017-08-09T06:14:16.042Z,52.82
2017-08-09T06:14:56.623Z,53.59
2017-08-09T06:15:37.208Z,54.05
2017-08-09T06:16:17.789Z,54.05
2017-08-09T06:16:58.375Z,53.93
2017-08-09T06:17:38.965Z,53.93
2017-08-09T06:18:19.553Z,53.74
2017-08-09T06:19:00.135Z,54.32
2017-08-09T06:19:40.718Z,54.52
2017-08-09T06:20:21.308Z,55.19
2017-08-09T06:21:01.897Z,55.58
2017-08-09T06:21:42.482Z,55.39
2017-08-09T06:22:23.077Z,55.68
2017-08-09T06:23:03.668Z,55.68
2017-08-09T06:23:44.255Z,55.78
2017-08-09T06:24:24.843Z,55.98
2017-08-09T06:25:05.421Z,55.78
2017-08-09T06:25:46.010Z,55.68
2017-08-09T06:26:26.593Z,55.78
2017-08-09T06:27:07.193Z,55.98
2017-08-09T06:27:47.782Z,55.98
2017-08-09T06:28:28.373Z,55.98
2017-08-09T06:29:08.948Z,55.51
2017-08-09T06:29:49.526Z,54.54
2017-08-09T06:30:30.108Z,54.44
2017-08-09T06:31:10.700Z,54.15
2017-08-09T06:31:51.279Z,53.77
2017-08-09T06:32:31.861Z,53.69
2017-08-09T06:33:12.458Z,53.89
2017-08-09T06:33:53.044Z,53.79
2017-08-09T06:34:33.634Z,53.4
2017-08-09T06:35:14.223Z,53.59
2017-08-09T06:35:54.811Z,53.5
2017-08-09T06:36:35.385Z,53.69
2017-08-09T06:37:30.693Z,53.79
2017-08-09T06:38:11.263Z,53.99
2017-08-09T06:38:51.840Z,53.5
2017-08-09T06:39:32.429Z,53.79
2017-08-09T06:40:13.020Z,53.5
2017-08-09T06:40:53.607Z,53.89
2017-08-09T06:41:34.187Z,54.64
2017-08-09T06:42:14.772Z,54.74
2017-08-09T06:42:55.353Z,54.44
2017-08-09T06:43:35.940Z,54.74
2017-08-09T06:44:16.524Z,54.54
2017-08-09T06:44:57.105Z,54.44
2017-08-09T06:45:37.702Z,54.74
2017-08-09T06:46:18.271Z,54.83
2017-08-09T06:46:58.846Z,54.57
2017-08-09T06:47:39.443Z,54.35
2017-08-09T06:48:20.030Z,54.28
2017-08-09T06:49:00.605Z,53.99
2017-08-09T06:49:41.200Z,53.69
2017-08-09T06:50:21.784Z,53.89
2017-08-09T06:51:17.040Z,54.38
2017-08-09T06:51:57.630Z,53.89
2017-08-09T06:52:38.220Z,53.59
2017-08-09T06:53:18.803Z,53.99
2017-08-09T06:53:59.392Z,53.89
2017-08-09T06:54:39.975Z,54.38
2017-08-09T06:55:20.563Z,54.25
2017-08-09T06:56:01.151Z,54.44
2017-08-09T06:56:41.738Z,54.44
2017-08-09T06:57:22.322Z,54.54
2017-08-09T06:58:02.911Z,54.93
2017-08-09T06:58:43.487Z,54.44
2017-08-09T06:59:24.073Z,54.54
2017-08-09T07:00:04.669Z,54.74
2017-08-09T07:00:45.249Z,54.54
2017-08-09T07:01:25.842Z,54.44
2017-08-09T07:02:06.425Z,54.52
2017-08-09T07:02:47.000Z,54.35
2017-08-09T07:03:27.596Z,54.61
2017-08-09T07:04:08.181Z,54.9
2017-08-09T07:04:48.769Z,54.9
2017-08-09T07:05:29.360Z,54.71
2017-08-09T07:06:09.947Z,54.9
2017-08-09T07:06:50.537Z,54.8
2017-08-09T07:07:31.118Z,54.9
2017-08-09T07:08:11.691Z,55.29
2017-08-09T07:08:52.280Z,55.19
2017-08-09T07:09:32.861Z,54.9
2017-08-09T07:10:13.442Z,55
2017-08-09T07:10:54.031Z,55.1
2017-08-09T07:11:34.620Z,55
2017-08-09T07:12:15.226Z,54.52
2017-08-09T07:12:55.799Z,54.54
2017-08-09T07:13:36.382Z,54.54
2017-08-09T07:14:16.971Z,54.61
2017-08-09T07:14:57.557Z,54.8
2017-08-09T07:15:38.139Z,54.83
2017-08-09T07:16:18.726Z,54.44
2017-08-09T07:16:59.312Z,54.15
2017-08-09T07:17:39.906Z,54.15
2017-08-09T07:18:20.483Z,54.05
2017-08-09T07:19:01.072Z,54.05
2017-08-09T07:19:41.672Z,53.67
2017-08-09T07:20:22.254Z,53.38
2017-08-09T07:21:02.852Z,53.79
2017-08-09T07:21:43.445Z,53.3
2017-08-09T07:22:24.019Z,53.01
2017-08-09T07:23:04.610Z,52.65
2017-08-09T07:23:45.198Z,51.99
2017-08-09T07:24:25.782Z,50.68
2017-08-09T07:25:06.370Z,46.8
2017-08-09T07:25:46.957Z,43.68
2017-08-09T07:26:27.553Z,42.23
2017-08-09T07:27:08.143Z,40.41
2017-08-09T07:27:48.727Z,39.54
2017-08-09T07:28:29.314Z,39.27
2017-08-09T07:29:09.904Z,38.98
2017-08-09T07:29:50.479Z,38.96
2017-08-09T07:31:43.118Z,40.19
2017-08-09T07:32:23.716Z,40.58
2017-08-09T07:33:04.303Z,41.15
2017-08-09T07:33:55.934Z,41.52
2017-08-09T07:34:36.526Z,41.72
2017-08-09T07:36:29.132Z,42.38
2017-08-09T07:37:09.713Z,42.29
2017-08-09T07:37:50.289Z,42.68
2017-08-09T07:38:30.877Z,42.66
2017-08-09T07:39:11.465Z,42.66
2017-08-09T07:39:52.054Z,42.76
2017-08-09T07:40:32.640Z,43.15
2017-08-09T07:41:13.236Z,43.15
2017-08-09T07:41:53.818Z,42.66
2017-08-09T07:42:34.411Z,42.88
2017-08-09T07:43:14.992Z,43.05
2017-08-09T07:43:55.578Z,42.76
2017-08-09T07:44:36.162Z,43.24
2017-08-09T07:45:16.750Z,43.34
2017-08-09T07:45:57.334Z,43.15
2017-08-09T07:46:37.913Z,42.95
2017-08-09T07:47:18.500Z,42.17
2017-08-09T07:47:59.092Z,42.29
2017-08-09T07:48:39.676Z,41.92
2017-08-09T07:49:20.260Z,42.21
2017-08-09T07:50:00.851Z,42.02
2017-08-09T07:50:41.438Z,41.72
2017-08-09T07:51:22.026Z,40.86
2017-08-09T07:52:02.614Z,39.15
2017-08-09T07:52:43.197Z,38.19
2017-08-09T07:53:23.788Z,37.15
2017-08-09T07:54:04.379Z,36.36
2017-08-09T07:54:44.972Z,36.74
2017-08-09T07:55:25.540Z,37.4
2017-08-09T07:56:06.132Z,37.6
2017-08-09T07:56:46.739Z,37.72
2017-08-09T07:57:27.302Z,37.6
2017-08-09T07:58:07.887Z,37.7
2017-08-09T07:58:48.476Z,37.42
2017-08-09T07:59:44.054Z,35.03
2017-08-09T08:00:24.638Z,34.94
2017-08-09T08:01:05.230Z,33.8
2017-08-09T08:01:45.822Z,31.6
2017-08-09T08:02:26.408Z,30.52
2017-08-09T08:03:06.996Z,31.86
2017-08-09T08:03:47.587Z,29.58
2017-08-09T08:04:28.174Z,30.51
2017-08-09T08:05:08.747Z,29.09
2017-08-09T08:05:49.345Z,29.55
2017-08-09T08:06:29.935Z,28.59
2017-08-09T08:07:10.520Z,29.16
2017-08-09T08:07:51.107Z,30.21
2017-08-09T08:08:31.685Z,30.79
2017-08-09T08:09:12.278Z,31.65
2017-08-09T08:11:30.271Z,34.13
2017-08-09T08:12:10.855Z,35.1
2017-08-09T08:12:51.447Z,35.28
2017-08-09T08:13:32.026Z,36.16
2017-08-09T08:14:12.618Z,35.77
2017-08-09T08:14:53.203Z,36.24
2017-08-09T08:15:33.785Z,35.99
2017-08-09T08:16:14.371Z,36.55
2017-08-09T08:16:54.960Z,36.63
2017-08-09T08:17:35.547Z,37.01
2017-08-09T08:18:16.138Z,37.48
2017-08-09T08:18:56.723Z,37.96
2017-08-09T08:19:37.309Z,38.06
2017-08-09T08:20:17.895Z,37.96
2017-08-09T08:20:58.485Z,38.45
2017-08-09T08:21:39.070Z,38.62
2017-08-09T08:22:19.654Z,38.43
2017-08-09T08:23:00.239Z,38.25
2017-08-09T08:23:40.814Z,36.75
2017-08-09T08:24:21.388Z,34.27
2017-08-09T08:25:01.980Z,33.08
2017-08-09T08:26:54.624Z,30.24
2017-08-09T08:27:35.213Z,29.57
2017-08-09T08:28:15.803Z,28.99
2017-08-09T08:28:56.390Z,28.11
2017-08-09T08:29:36.978Z,27.16
2017-08-09T08:30:17.573Z,25.9
2017-08-09T08:30:58.160Z,24.93
2017-08-09T08:31:38.749Z,25.2
2017-08-09T08:32:19.334Z,24.26
2017-08-09T08:32:59.920Z,23.67
2017-08-09T08:33:40.500Z,23.07
2017-08-09T08:34:21.086Z,22.88
2017-08-09T08:35:01.669Z,24.72
2017-08-09T08:35:42.244Z,23.07
2017-08-09T08:36:22.833Z,23.46
2017-08-09T08:37:03.416Z,24.72
2017-08-09T08:37:44.005Z,23.66
2017-08-09T08:38:24.589Z,22.89
2017-08-09T08:39:05.165Z,22.6
2017-08-09T08:39:45.746Z,22.51
2017-08-09T08:40:26.329Z,21.72
2017-08-09T08:41:06.914Z,21.44
2017-08-09T08:41:47.505Z,21.44
2017-08-09T08:42:28.091Z,21.62
2017-08-09T08:43:08.683Z,21.5
2017-08-09T08:43:49.274Z,22.96
2017-08-09T08:44:29.861Z,23.65
2017-08-09T08:45:10.453Z,22.77
2017-08-09T08:45:51.039Z,24.12
2017-08-09T08:46:31.624Z,25.38
2017-08-09T08:47:12.212Z,26.04
2017-08-09T08:47:52.801Z,27.19
2017-08-09T08:48:33.393Z,27.86
2017-08-09T08:49:13.985Z,28.74
2017-08-09T08:49:54.574Z,29.71
2017-08-09T08:50:35.170Z,29.71
2017-08-09T08:51:15.759Z,29.34
2017-08-09T08:51:56.349Z,27.98
2017-08-09T08:52:36.938Z,27.42
2017-08-09T08:53:17.512Z,27.69
2017-08-09T08:53:58.085Z,27.7
2017-08-09T08:54:38.683Z,26.25
2017-08-09T08:55:19.263Z,25.96
2017-08-09T08:55:59.847Z,25.67
2017-08-09T08:56:40.456Z,27.21
2017-08-09T08:57:21.024Z,28.16
2017-08-09T08:58:01.611Z,28.83
2017-08-09T08:58:42.186Z,29.99
2017-08-09T08:59:22.778Z,30.65
2017-08-09T09:00:03.374Z,31.62
2017-08-09T09:00:43.952Z,32.38
2017-08-09T09:01:24.540Z,33.54
2017-08-09T09:02:05.114Z,33.82
2017-08-09T09:02:45.695Z,34.49